Time,TemperatureF,DewpointF,PressureIn,WindDirection,WindDirectionDegrees,WindSpeedMPH,WindSpeedGustMPH,Humidity,HourlyPrecipIn,Conditions,Clouds,dailyrainin,SoftwareType,DateUTC
2013-10-30 00:02:00,43.1,43.1,30.32,SE,136,0.0,0.0,100,0.00,,SCT060,0.00,VWS V14.01,2013-10-30 04:02:00,
2013-10-30 00:03:00,43.0,43.0,30.32,SE,136,0.0,0.0,100,0.00,,SCT060,0.00,VWS V14.01,2013-10-30 04:03:00,
2013-10-30 00:08:00,43.0,43.0,30.31,SE,136,0.0,0.0,100,0.00,,BKN060,0.00,VWS V14.01,2013-10-30 04:08:00,
2013-10-30 00:13:00,43.0,43.0,30.31,SE,136,0.0,0.0,100,0.00,,BKN060,0.00,VWS V14.01,2013-10-30 04:13:00,
2013-10-30 00:18:00,43.0,43.0,30.31,SE,136,0.0,0.0,100,0.00,,BKN060,0.00,VWS V14.01,2013-10-30 04:18:00,
2013-10-30 00:23:00,43.1,43.1,30.30,SE,136,0.0,0.0,100,0.00,,BKN060,0.00,VWS V14.01,2013-10-30 04:23:00,
2013-10-30 00:28:00,43.1,43.1,30.31,SE,136,0.0,0.0,100,0.00,,BKN060,0.00,VWS V14.01,2013-10-30 04:28:00,
2013-10-30 00:33:00,43.0,43.0,30.31,SE,136,0.0,0.0,100,0.00,,BKN060,0.00,VWS V14.01,2013-10-30 04:33:00,
2013-10-30 00:38:00,43.0,43.0,30.31,SE,136,0.0,0.0,100,0.00,,BKN060,0.00,VWS V14.01,2013-10-30 04:38:00,
2013-10-30 00:43:00,43.1,43.1,30.31,SE,136,0.0,0.0,100,0.00,,SCT060,0.00,VWS V14.01,2013-10-30 04:43:00,
2013-10-30 00:48:00,43.2,43.2,30.31,SE,136,0.0,0.0,100,0.00,,SCT060,0.00,VWS V14.01,2013-10-30 04:48:00,
2013-10-30 00:53:00,43.2,43.2,30.31,SE,136,0.0,0.0,100,0.00,,SCT060,0.00,VWS V14.01,2013-10-30 04:53:00,
2013-10-30 00:58:00,43.3,43.3,30.31,SE,136,0.0,0.0,100,0.00,,SCT060,0.00,VWS V14.01,2013-10-30 04:58:00,
2013-10-30 01:03:00,43.4,43.4,30.31,SE,136,0.0,0.0,100,0.00,,SCT065,0.00,VWS V14.01,2013-10-30 05:03:00,
2013-10-30 01:08:00,43.5,43.5,30.30,SE,136,0.0,0.0,100,0.00,,SCT065,0.00,VWS V14.01,2013-10-30 05:08:00,
2013-10-30 01:13:00,43.6,43.6,30.30,SE,136,0.0,0.0,100,0.00,,SCT065,0.00,VWS V14.01,2013-10-30 05:13:00,
2013-10-30 01:18:00,43.7,43.7,30.30,SE,136,0.0,0.0,100,0.00,,SCT065,0.00,VWS V14.01,2013-10-30 05:18:00,
2013-10-30 01:23:00,43.7,43.7,30.30,SE,136,0.0,0.0,100,0.00,,OVC065,0.00,VWS V14.01,2013-10-30 05:23:00,
2013-10-30 01:28:00,43.7,43.7,30.30,SE,136,0.0,0.0,100,0.00,,OVC065,0.00,VWS V14.01,2013-10-30 05:28:00,
2013-10-30 01:33:00,43.7,43.7,30.30,SE,136,0.0,0.0,100,0.00,,OVC065,0.00,VWS V14.01,2013-10-30 05:33:00,
2013-10-30 01:38:00,43.7,43.7,30.29,SE,136,0.0,0.0,100,0.00,,OVC065,0.00,VWS V14.01,2013-10-30 05:38:00,
2013-10-30 01:43:00,43.8,43.8,30.29,SE,136,0.0,0.0,100,0.00,,OVC065,0.00,VWS V14.01,2013-10-30 05:43:00,
2013-10-30 01:48:00,43.8,43.8,30.29,SE,136,0.0,0.0,100,0.00,,OVC065,0.00,VWS V14.01,2013-10-30 05:48:00,
2013-10-30 01:53:00,43.8,43.8,30.29,SE,136,0.0,0.0,100,0.00,,OVC065,0.00,VWS V14.01,2013-10-30 05:53:00,
2013-10-30 01:58:00,43.8,43.8,30.29,SE,136,0.0,0.0,100,0.00,,OVC065,0.00,VWS V14.01,2013-10-30 05:58:00,
2013-10-30 02:03:00,43.9,43.9,30.29,SE,136,0.0,0.0,100,0.00,,BKN055,0.00,VWS V14.01,2013-10-30 06:03:00,
2013-10-30 02:08:00,43.9,43.9,30.29,SE,136,0.0,0.0,100,0.00,,BKN055,0.00,VWS V14.01,2013-10-30 06:08:00,
2013-10-30 02:13:00,43.8,43.8,30.28,SE,136,0.0,0.0,100,0.00,,BKN055,0.00,VWS V14.01,2013-10-30 06:13:00,
2013-10-30 02:18:00,43.8,43.8,30.28,SE,136,0.0,0.0,100,0.00,,BKN055,0.00,VWS V14.01,2013-10-30 06:18:00,
2013-10-30 02:23:00,43.8,43.8,30.28,SE,136,0.0,0.0,100,0.00,,BKN065,0.00,VWS V14.01,2013-10-30 06:23:00,
2013-10-30 02:29:00,43.8,43.8,30.28,SE,136,0.0,0.0,100,0.00,,BKN065,0.00,VWS V14.01,2013-10-30 06:29:00,
2013-10-30 02:33:00,43.7,43.7,30.28,SE,136,0.0,0.0,100,0.00,,BKN065,0.00,VWS V14.01,2013-10-30 06:33:00,
2013-10-30 02:39:00,43.6,43.6,30.27,SE,136,0.0,0.0,100,0.00,,BKN065,0.00,VWS V14.01,2013-10-30 06:39:00,
2013-10-30 02:44:00,43.6,43.6,30.27,SE,136,0.0,0.0,100,0.00,,SCT050,0.00,VWS V14.01,2013-10-30 06:44:00,
2013-10-30 02:49:00,43.6,43.6,30.28,SE,136,0.0,0.0,100,0.00,,SCT050,0.00,VWS V14.01,2013-10-30 06:49:00,
2013-10-30 02:54:00,43.5,43.5,30.28,SE,136,0.0,0.0,100,0.00,,SCT050,0.00,VWS V14.01,2013-10-30 06:54:00,
2013-10-30 02:59:00,43.5,43.5,30.28,SE,136,0.0,0.0,100,0.00,,SCT050,0.00,VWS V14.01,2013-10-30 06:59:00,
2013-10-30 03:04:00,43.4,43.4,30.28,SE,136,0.0,0.0,100,0.00,,CLR,0.00,VWS V14.01,2013-10-30 07:04:00,
2013-10-30 03:09:00,43.4,43.4,30.27,SE,136,0.0,0.0,100,0.00,,CLR,0.00,VWS V14.01,2013-10-30 07:09:00,
2013-10-30 03:14:00,43.3,43.3,30.27,SE,136,0.0,0.0,100,0.00,,CLR,0.00,VWS V14.01,2013-10-30 07:14:00,
2013-10-30 03:19:00,43.2,43.2,30.27,SE,136,0.0,0.0,100,0.00,,CLR,0.00,VWS V14.01,2013-10-30 07:19:00,
2013-10-30 03:24:00,43.1,43.1,30.27,SE,136,0.0,0.0,100,0.00,,CLR,0.00,VWS V14.01,2013-10-30 07:24:00,
2013-10-30 03:29:00,43.1,43.1,30.27,SE,136,0.0,0.0,100,0.00,,CLR,0.00,VWS V14.01,2013-10-30 07:29:00,
2013-10-30 03:34:00,43.2,43.2,30.27,SE,136,0.0,0.0,100,0.00,,CLR,0.00,VWS V14.01,2013-10-30 07:34:00,
2013-10-30 03:39:00,43.2,43.2,30.27,SE,136,0.0,0.0,100,0.00,,CLR,0.00,VWS V14.01,2013-10-30 07:39:00,
2013-10-30 03:44:00,43.2,43.2,30.27,SE,136,0.0,0.0,100,0.00,,SCT100,0.00,VWS V14.01,2013-10-30 07:44:00,
2013-10-30 03:49:00,43.3,43.3,30.27,SE,136,0.0,0.0,100,0.00,,SCT100,0.00,VWS V14.01,2013-10-30 07:49:00,
2013-10-30 03:54:00,43.3,43.3,30.26,SE,136,0.0,0.0,100,0.00,,SCT100,0.00,VWS V14.01,2013-10-30 07:54:00,
2013-10-30 03:59:00,43.3,43.3,30.26,SE,136,0.0,0.0,100,0.00,,SCT100,0.00,VWS V14.01,2013-10-30 07:59:00,
2013-10-30 04:04:00,43.5,43.5,30.25,SE,136,0.0,0.0,100,0.00,,SCT100,0.00,VWS V14.01,2013-10-30 08:04:00,
2013-10-30 04:09:00,43.6,43.6,30.25,SE,136,0.0,0.0,100,0.00,,BKN100,0.00,VWS V14.01,2013-10-30 08:09:00,
2013-10-30 04:14:00,43.7,43.7,30.25,SE,136,0.0,0.0,100,0.00,,BKN100,0.00,VWS V14.01,2013-10-30 08:14:00,
2013-10-30 04:19:00,43.9,43.9,30.25,SE,136,0.0,0.0,100,0.00,,BKN100,0.00,VWS V14.01,2013-10-30 08:19:00,
2013-10-30 04:24:00,44.0,44.0,30.25,SE,136,0.0,0.0,100,0.00,,OVC100,0.00,VWS V14.01,2013-10-30 08:24:00,
2013-10-30 04:29:00,44.1,44.1,30.26,SE,136,0.0,0.0,100,0.00,,OVC100,0.00,VWS V14.01,2013-10-30 08:29:00,
2013-10-30 04:34:00,44.4,44.4,30.25,SE,136,0.0,0.0,100,0.00,,OVC100,0.00,VWS V14.01,2013-10-30 08:34:00,
2013-10-30 04:39:00,44.6,44.6,30.25,SE,136,0.0,0.0,100,0.00,,OVC100,0.00,VWS V14.01,2013-10-30 08:39:00,
2013-10-30 04:44:00,44.7,44.7,30.25,SE,136,0.0,0.0,100,0.00,,OVC080,0.00,VWS V14.01,2013-10-30 08:44:00,
2013-10-30 04:49:00,44.8,44.8,30.25,SE,136,0.0,0.0,100,0.00,,OVC080,0.00,VWS V14.01,2013-10-30 08:49:00,
2013-10-30 04:54:00,44.9,44.9,30.25,SE,136,0.0,0.0,100,0.00,,OVC080,0.00,VWS V14.01,2013-10-30 08:54:00,
2013-10-30 04:59:00,45.0,45.0,30.25,SE,136,0.0,0.0,100,0.00,,OVC080,0.00,VWS V14.01,2013-10-30 08:59:00,
2013-10-30 05:04:00,45.1,45.1,30.24,SE,136,0.0,0.0,100,0.00,,-RA,0.00,VWS V14.01,2013-10-30 09:04:00,
2013-10-30 05:09:00,45.2,45.2,30.25,SE,136,0.0,0.0,100,0.00,,-RA,0.00,VWS V14.01,2013-10-30 09:09:00,
2013-10-30 05:14:00,45.5,45.5,30.25,SE,136,0.0,0.0,100,0.00,,-RA,0.00,VWS V14.01,2013-10-30 09:14:00,
2013-10-30 05:19:00,45.6,45.6,30.25,SE,136,0.0,0.0,100,0.00,,-RA,0.00,VWS V14.01,2013-10-30 09:19:00,
2013-10-30 05:24:00,45.7,45.7,30.25,SE,136,0.0,0.0,100,0.01,,-RA,0.01,VWS V14.01,2013-10-30 09:24:00,
2013-10-30 05:29:00,45.8,45.8,30.25,SE,136,0.0,0.0,100,0.01,,-RA,0.01,VWS V14.01,2013-10-30 09:29:00,
2013-10-30 05:34:00,45.9,45.9,30.25,SE,136,0.0,0.0,100,0.01,,-RA,0.01,VWS V14.01,2013-10-30 09:34:00,
2013-10-30 05:39:00,46.0,46.0,30.25,SE,136,0.0,0.0,100,0.01,,-RA,0.01,VWS V14.01,2013-10-30 09:39:00,
2013-10-30 05:44:00,46.0,46.0,30.25,SE,136,0.0,0.0,100,0.01,,OVC060,0.01,VWS V14.01,2013-10-30 09:44:00,
2013-10-30 05:49:00,46.0,46.0,30.25,SE,136,0.0,0.0,100,0.01,,OVC060,0.01,VWS V14.01,2013-10-30 09:49:00,
2013-10-30 05:54:00,46.0,46.0,30.25,SE,136,0.0,0.0,100,0.01,,OVC060,0.01,VWS V14.01,2013-10-30 09:54:00,
2013-10-30 05:59:00,46.1,46.1,30.25,SE,136,0.0,0.0,100,0.01,,OVC060,0.01,VWS V14.01,2013-10-30 09:59:00,
2013-10-30 06:04:00,46.1,46.1,30.24,SE,136,0.0,0.0,100,0.01,,OVC050,0.01,VWS V14.01,2013-10-30 10:04:00,
2013-10-30 06:09:00,46.1,46.1,30.24,SE,136,0.0,0.0,100,0.01,,OVC050,0.01,VWS V14.01,2013-10-30 10:09:00,
2013-10-30 06:14:00,46.2,46.2,30.24,SE,136,0.0,0.0,100,0.01,,OVC050,0.01,VWS V14.01,2013-10-30 10:14:00,
2013-10-30 06:19:00,46.2,46.2,30.24,SE,136,0.0,0.0,100,0.01,,OVC050,0.01,VWS V14.01,2013-10-30 10:19:00,
2013-10-30 06:24:00,46.2,46.2,30.24,SE,136,0.0,0.0,100,0.01,,OVC090,0.01,VWS V14.01,2013-10-30 10:24:00,
2013-10-30 06:29:00,46.2,46.2,30.24,SE,136,0.0,0.0,100,0.00,,OVC090,0.01,VWS V14.01,2013-10-30 10:29:00,
2013-10-30 06:34:00,46.1,46.1,30.25,SE,136,0.0,0.0,100,0.00,,OVC090,0.01,VWS V14.01,2013-10-30 10:34:00,
2013-10-30 06:39:00,46.1,46.1,30.25,SE,136,0.0,0.0,100,0.00,,OVC090,0.01,VWS V14.01,2013-10-30 10:39:00,
2013-10-30 06:44:00,46.1,46.1,30.25,SE,136,0.0,0.0,100,0.00,,OVC090,0.01,VWS V14.01,2013-10-30 10:44:00,
2013-10-30 06:49:00,46.1,46.1,30.25,SE,136,0.0,0.0,100,0.00,,OVC090,0.01,VWS V14.01,2013-10-30 10:49:00,
2013-10-30 06:54:00,46.1,46.1,30.25,SE,136,0.0,0.0,100,0.00,,OVC090,0.01,VWS V14.01,2013-10-30 10:54:00,
2013-10-30 06:59:00,46.1,46.1,30.25,SE,136,0.0,0.0,100,0.00,,OVC090,0.01,VWS V14.01,2013-10-30 10:59:00,
2013-10-30 07:04:00,46.1,46.1,30.25,SE,136,0.0,0.0,100,0.00,,OVC048,0.01,VWS V14.01,2013-10-30 11:04:00,
2013-10-30 07:09:00,46.1,46.1,30.24,SE,136,0.0,0.0,100,0.00,,OVC048,0.01,VWS V14.01,2013-10-30 11:09:00,
2013-10-30 07:14:00,46.1,46.1,30.24,SE,136,0.0,0.0,100,0.00,,OVC048,0.01,VWS V14.01,2013-10-30 11:14:00,
2013-10-30 07:19:00,46.1,46.1,30.24,SE,136,0.0,0.0,100,0.00,,OVC048,0.01,VWS V14.01,2013-10-30 11:19:00,
2013-10-30 07:24:00,46.1,46.1,30.24,SE,136,0.0,0.0,100,0.00,,OVC070,0.01,VWS V14.01,2013-10-30 11:24:00,
2013-10-30 07:29:00,46.1,46.1,30.24,SE,136,0.0,0.0,100,0.00,,OVC070,0.01,VWS V14.01,2013-10-30 11:29:00,
2013-10-30 07:34:00,46.1,46.1,30.24,SE,136,0.0,0.0,100,0.00,,OVC070,0.01,VWS V14.01,2013-10-30 11:34:00,
2013-10-30 07:40:00,46.1,46.1,30.24,SE,136,0.0,0.0,100,0.00,,OVC070,0.01,VWS V14.01,2013-10-30 11:40:00,
2013-10-30 07:45:00,46.1,46.1,30.24,SE,136,0.0,0.0,100,0.00,,OVC110,0.01,VWS V14.01,2013-10-30 11:45:00,
2013-10-30 07:50:00,46.1,46.1,30.24,SE,136,0.0,0.0,100,0.00,,OVC110,0.01,VWS V14.01,2013-10-30 11:50:00,
2013-10-30 07:55:00,46.2,46.2,30.24,SE,136,0.0,0.0,100,0.00,,OVC110,0.01,VWS V14.01,2013-10-30 11:55:00,
2013-10-30 08:02:00,46.3,46.3,30.24,SE,136,0.0,0.0,100,0.00,,OVC110,0.01,VWS V14.01,2013-10-30 12:02:00,
2013-10-30 08:07:00,46.4,46.4,30.24,SE,136,0.0,0.0,100,0.00,,BKN110,0.01,VWS V14.01,2013-10-30 12:07:00,
2013-10-30 08:12:00,46.4,46.4,30.24,SE,136,0.0,0.0,100,0.00,,BKN110,0.01,VWS V14.01,2013-10-30 12:12:00,
2013-10-30 08:17:00,46.4,46.4,30.24,SE,136,0.0,0.0,100,0.00,,BKN110,0.01,VWS V14.01,2013-10-30 12:17:00,
2013-10-30 08:22:00,46.3,46.3,30.24,SE,136,0.0,0.0,100,0.00,,BKN120,0.01,VWS V14.01,2013-10-30 12:22:00,
2013-10-30 08:27:00,46.3,46.3,30.24,SE,136,0.0,0.0,100,0.00,,BKN120,0.01,VWS V14.01,2013-10-30 12:27:00,
2013-10-30 08:32:00,46.3,46.3,30.24,SE,136,0.0,0.0,100,0.00,,BKN120,0.01,VWS V14.01,2013-10-30 12:32:00,
2013-10-30 08:37:00,46.4,46.4,30.25,SE,136,0.0,0.0,100,0.00,,BKN120,0.01,VWS V14.01,2013-10-30 12:37:00,
2013-10-30 08:42:00,46.6,46.6,30.25,SE,136,0.0,0.0,100,0.00,,BKN110,0.01,VWS V14.01,2013-10-30 12:42:00,
2013-10-30 08:47:00,47.3,47.3,30.25,SE,136,0.0,0.0,100,0.00,,BKN110,0.01,VWS V14.01,2013-10-30 12:47:00,
2013-10-30 08:52:00,47.7,47.7,30.25,SE,136,0.0,0.0,100,0.00,,BKN110,0.01,VWS V14.01,2013-10-30 12:52:00,
2013-10-30 08:57:00,47.9,47.9,30.25,SE,136,0.0,0.0,100,0.00,,BKN110,0.01,VWS V14.01,2013-10-30 12:57:00,
2013-10-30 09:02:00,48.0,48.0,30.25,SE,136,0.0,0.0,100,0.00,,BKN110,0.01,VWS V14.01,2013-10-30 13:02:00,
2013-10-30 09:07:00,48.2,48.2,30.25,SE,136,0.0,0.0,100,0.00,,BKN110,0.01,VWS V14.01,2013-10-30 13:07:00,
2013-10-30 09:12:00,48.4,48.4,30.25,SE,136,0.0,0.0,100,0.00,,BKN110,0.01,VWS V14.01,2013-10-30 13:12:00,
2013-10-30 09:17:00,48.6,48.6,30.25,SE,136,0.0,0.0,100,0.00,,BKN110,0.01,VWS V14.01,2013-10-30 13:17:00,
2013-10-30 09:22:00,48.8,48.8,30.25,SE,136,0.0,0.0,100,0.00,,OVC110,0.01,VWS V14.01,2013-10-30 13:22:00,
2013-10-30 09:27:00,49.1,49.1,30.25,SE,136,0.0,0.0,100,0.00,,OVC110,0.01,VWS V14.01,2013-10-30 13:27:00,
2013-10-30 09:32:00,49.4,49.4,30.25,SE,136,0.0,0.0,100,0.00,,OVC110,0.01,VWS V14.01,2013-10-30 13:32:00,
2013-10-30 09:37:00,49.7,49.7,30.25,SE,136,0.0,0.0,100,0.00,,OVC110,0.01,VWS V14.01,2013-10-30 13:37:00,
2013-10-30 09:42:00,50.1,50.1,30.24,SE,136,0.0,0.0,100,0.00,,OVC110,0.01,VWS V14.01,2013-10-30 13:42:00,
2013-10-30 09:47:00,50.5,50.5,30.24,SE,135,0.0,1.0,100,0.00,,OVC110,0.01,VWS V14.01,2013-10-30 13:47:00,
2013-10-30 09:52:00,51.0,51.0,30.24,SE,135,0.0,1.0,100,0.00,,OVC110,0.01,VWS V14.01,2013-10-30 13:52:00,
2013-10-30 09:57:00,51.4,51.4,30.24,SE,134,0.0,1.0,100,0.00,,OVC110,0.01,VWS V14.01,2013-10-30 13:57:00,
2013-10-30 10:02:00,51.9,51.9,30.24,SE,134,0.0,0.0,100,0.00,,OVC095,0.01,VWS V14.01,2013-10-30 14:02:00,
2013-10-30 10:07:00,52.3,52.0,30.24,SE,134,0.0,0.0,99,0.00,,OVC095,0.01,VWS V14.01,2013-10-30 14:07:00,
2013-10-30 10:12:00,52.9,52.3,30.24,SE,136,1.0,2.0,98,0.00,,OVC095,0.01,VWS V14.01,2013-10-30 14:12:00,
2013-10-30 10:18:00,53.7,52.3,30.24,ESE,117,0.0,2.0,95,0.00,,OVC095,0.01,VWS V14.01,2013-10-30 14:18:00,
2013-10-30 17:30:00,65.8,57.7,30.13,SSE,158,0.0,3.0,75,0.00,,OVC095,0.01,VWS V14.01,2013-10-30 21:30:00,
2013-10-30 18:15:00,61.4,56.5,30.15,SE,129,0.0,0.0,84,0.00,,OVC095,0.01,VWS V14.01,2013-10-30 22:15:00,
2013-10-30 18:20:00,60.9,56.4,30.15,SSE,166,0.0,1.0,85,0.00,,CLR,0.01,VWS V14.01,2013-10-30 22:20:00,
2013-10-30 18:25:00,60.4,56.2,30.15,SSE,166,0.0,1.0,86,0.00,,CLR,0.01,VWS V14.01,2013-10-30 22:25:00,
2013-10-30 18:30:00,59.8,55.9,30.15,SSE,166,0.0,0.0,87,0.00,,CLR,0.01,VWS V14.01,2013-10-30 22:30:00,
2013-10-30 18:35:00,59.5,56.3,30.16,SSE,166,0.0,0.0,89,0.00,,CLR,0.01,VWS V14.01,2013-10-30 22:35:00,
2013-10-30 18:40:00,59.4,56.2,30.16,SSE,166,0.0,0.0,89,0.00,,CLR,0.01,VWS V14.01,2013-10-30 22:40:00,
2013-10-30 18:45:00,59.3,56.4,30.17,SSE,166,0.0,0.0,90,0.00,,CLR,0.01,VWS V14.01,2013-10-30 22:45:00,
2013-10-30 18:50:00,59.1,56.2,30.17,SSE,166,0.0,0.0,90,0.00,,CLR,0.01,VWS V14.01,2013-10-30 22:50:00,
2013-10-30 18:55:00,59.0,56.1,30.16,SSE,166,0.0,0.0,90,0.00,,CLR,0.01,VWS V14.01,2013-10-30 22:55:00,
2013-10-30 19:00:00,58.9,56.0,30.17,SSE,166,0.0,0.0,90,0.00,,CLR,0.01,VWS V14.01,2013-10-30 23:00:00,
2013-10-30 19:05:00,58.9,56.3,30.17,SSE,166,0.0,0.0,91,0.00,,BKN070,0.01,VWS V14.01,2013-10-30 23:05:00,
2013-10-30 19:10:00,58.9,56.3,30.17,SSE,166,0.0,0.0,91,0.00,,BKN070,0.01,VWS V14.01,2013-10-30 23:10:00,
2013-10-30 19:15:00,58.8,55.9,30.17,SSE,166,0.0,0.0,90,0.00,,BKN070,0.01,VWS V14.01,2013-10-30 23:15:00,
2013-10-30 19:20:00,58.9,56.3,30.17,SSE,166,0.0,0.0,91,0.00,,OVC070,0.01,VWS V14.01,2013-10-30 23:20:00,
2013-10-30 19:25:00,58.9,56.3,30.18,SSE,166,0.0,0.0,91,0.00,,OVC070,0.01,VWS V14.01,2013-10-30 23:25:00,
2013-10-30 19:30:00,58.9,56.6,30.18,SSE,166,0.0,0.0,92,0.00,,OVC070,0.01,VWS V14.01,2013-10-30 23:30:00,
2013-10-30 19:35:00,58.8,56.2,30.18,SSE,166,0.0,0.0,91,0.00,,OVC070,0.01,VWS V14.01,2013-10-30 23:35:00,
2013-10-30 19:40:00,58.7,56.1,30.18,SSE,166,0.0,0.0,91,0.00,,OVC070,0.01,VWS V14.01,2013-10-30 23:40:00,
2013-10-30 19:45:00,58.7,56.4,30.18,SSE,166,0.0,0.0,92,0.00,,OVC070,0.01,VWS V14.01,2013-10-30 23:45:00,
2013-10-30 19:50:00,58.7,56.4,30.18,SSE,166,0.0,0.0,92,0.00,,OVC070,0.01,VWS V14.01,2013-10-30 23:50:00,
2013-10-30 19:55:00,58.6,56.3,30.17,SSE,166,0.0,0.0,92,0.00,,OVC070,0.01,VWS V14.01,2013-10-30 23:55:00,
2013-10-30 20:03:00,58.5,56.5,30.17,SSE,166,0.0,0.0,93,0.00,,OVC070,0.01,VWS V14.01,2013-10-31 00:03:00,
2013-10-30 20:08:00,58.2,56.2,30.17,SSE,166,0.0,0.0,93,0.00,,OVC070,0.01,VWS V14.01,2013-10-31 00:08:00,
2013-10-30 20:13:00,58.1,56.4,30.17,SSE,166,0.0,0.0,94,0.00,,OVC070,0.01,VWS V14.01,2013-10-31 00:13:00,
2013-10-30 20:18:00,58.0,56.3,30.17,SSE,166,0.0,0.0,94,0.00,,OVC070,0.01,VWS V14.01,2013-10-31 00:18:00,
2013-10-30 20:23:00,57.9,56.2,30.17,SSE,166,0.0,0.0,94,0.00,,OVC070,0.01,VWS V14.01,2013-10-31 00:23:00,
2013-10-30 20:28:00,57.8,56.4,30.17,SSE,166,0.0,0.0,95,0.00,,OVC070,0.01,VWS V14.01,2013-10-31 00:28:00,
2013-10-30 20:33:00,57.7,56.0,30.17,SSE,166,0.0,0.0,94,0.00,,OVC070,0.01,VWS V14.01,2013-10-31 00:33:00,
2013-10-30 20:38:00,57.6,56.2,30.17,SSE,166,0.0,0.0,95,0.00,,OVC070,0.01,VWS V14.01,2013-10-31 00:38:00,
2013-10-30 20:43:00,57.6,56.2,30.17,SSE,166,0.0,0.0,95,0.00,,OVC070,0.01,VWS V14.01,2013-10-31 00:43:00,
2013-10-30 20:48:00,57.4,56.0,30.17,SSE,166,0.0,0.0,95,0.00,,OVC070,0.01,VWS V14.01,2013-10-31 00:48:00,
2013-10-30 20:53:00,57.3,55.9,30.17,SSE,166,0.0,0.0,95,0.00,,OVC070,0.01,VWS V14.01,2013-10-31 00:53:00,
2013-10-30 20:58:00,57.3,56.2,30.18,SSE,166,0.0,0.0,96,0.00,,OVC070,0.01,VWS V14.01,2013-10-31 00:58:00,
2013-10-30 21:03:00,57.2,56.1,30.17,SSE,166,0.0,0.0,96,0.00,,OVC070,0.01,VWS V14.01,2013-10-31 01:03:00,
2013-10-30 21:08:00,57.1,56.0,30.17,SSE,166,0.0,0.0,96,0.00,,OVC070,0.01,VWS V14.01,2013-10-31 01:08:00,
2013-10-30 21:13:00,57.1,56.0,30.17,SSE,166,0.0,0.0,96,0.00,,OVC070,0.01,VWS V14.01,2013-10-31 01:13:00,
2013-10-30 21:19:00,56.9,55.8,30.17,SSE,166,0.0,0.0,96,0.00,,OVC070,0.01,VWS V14.01,2013-10-31 01:19:00,
2013-10-30 21:24:00,56.9,55.8,30.18,SSE,166,0.0,0.0,96,0.00,,OVC070,0.01,VWS V14.01,2013-10-31 01:24:00,
2013-10-30 21:29:00,56.8,56.0,30.18,SSE,166,0.0,0.0,97,0.00,,OVC070,0.01,VWS V14.01,2013-10-31 01:29:00,
2013-10-30 21:34:00,56.7,55.9,30.18,SSE,166,0.0,0.0,97,0.00,,OVC070,0.01,VWS V14.01,2013-10-31 01:34:00,
2013-10-30 21:39:00,56.7,55.9,30.18,SSE,166,0.0,0.0,97,0.00,,OVC070,0.01,VWS V14.01,2013-10-31 01:39:00,
2013-10-30 21:44:00,56.7,55.6,30.18,SSE,166,0.0,0.0,96,0.00,,OVC070,0.01,VWS V14.01,2013-10-31 01:44:00,
2013-10-30 21:49:00,56.5,55.4,30.17,SSE,166,0.0,0.0,96,0.00,,OVC070,0.01,VWS V14.01,2013-10-31 01:49:00,
2013-10-30 21:54:00,56.4,55.6,30.17,SSE,166,0.0,0.0,97,0.00,,OVC070,0.01,VWS V14.01,2013-10-31 01:54:00,
2013-10-30 21:59:00,56.1,55.3,30.18,SSE,166,0.0,0.0,97,0.00,,OVC070,0.01,VWS V14.01,2013-10-31 01:59:00,
2013-10-30 22:04:00,55.9,55.3,30.18,SSE,166,0.0,0.0,98,0.00,,BKN070,0.01,VWS V14.01,2013-10-31 02:04:00,
2013-10-30 22:09:00,55.6,55.0,30.18,SSE,166,0.0,0.0,98,0.00,,BKN070,0.01,VWS V14.01,2013-10-31 02:09:00,
2013-10-30 22:14:00,55.3,54.5,30.18,SSE,166,0.0,0.0,97,0.00,,BKN070,0.01,VWS V14.01,2013-10-31 02:14:00,
2013-10-30 22:19:00,55.0,54.5,30.19,SSE,166,0.0,0.0,98,0.00,,BKN070,0.01,VWS V14.01,2013-10-31 02:19:00,
2013-10-30 22:24:00,54.7,54.2,30.18,SSE,166,0.0,0.0,98,0.00,,SCT050,0.01,VWS V14.01,2013-10-31 02:24:00,
2013-10-30 22:29:00,54.5,54.2,30.19,SSE,166,0.0,0.0,99,0.00,,SCT050,0.01,VWS V14.01,2013-10-31 02:29:00,
2013-10-30 22:34:00,54.4,54.1,30.19,SSE,166,0.0,0.0,99,0.00,,SCT050,0.01,VWS V14.01,2013-10-31 02:34:00,
2013-10-30 22:39:00,54.2,53.9,30.19,SSE,166,0.0,0.0,99,0.00,,SCT050,0.01,VWS V14.01,2013-10-31 02:39:00,
2013-10-30 22:44:00,54.0,54.0,30.19,SSE,166,0.0,0.0,100,0.00,,SCT050,0.01,VWS V14.01,2013-10-31 02:44:00,
2013-10-30 22:49:00,53.8,53.8,30.19,SSE,166,0.0,0.0,100,0.00,,SCT050,0.01,VWS V14.01,2013-10-31 02:49:00,
2013-10-30 22:54:00,53.7,53.7,30.19,SSE,166,0.0,0.0,100,0.00,,SCT050,0.01,VWS V14.01,2013-10-31 02:54:00,
2013-10-30 22:59:00,53.6,53.6,30.19,SSE,166,0.0,0.0,100,0.00,,SCT050,0.01,VWS V14.01,2013-10-31 02:59:00,
2013-10-30 23:01:00,53.6,53.6,30.19,SSE,166,0.0,0.0,100,0.00,,BKN050,0.01,VWS V14.01,2013-10-31 03:01:00,
2013-10-30 23:06:00,53.5,53.5,30.19,SSE,166,0.0,0.0,100,0.00,,BKN050,0.01,VWS V14.01,2013-10-31 03:06:00,
2013-10-30 23:11:00,53.5,53.5,30.19,SSE,166,0.0,0.0,100,0.00,,BKN050,0.01,VWS V14.01,2013-10-31 03:11:00,
2013-10-30 23:16:00,53.4,53.4,30.19,SSE,166,0.0,0.0,100,0.00,,BKN050,0.01,VWS V14.01,2013-10-31 03:16:00,
2013-10-30 23:21:00,53.4,53.4,30.19,SSE,166,0.0,0.0,100,0.00,,OVC050,0.01,VWS V14.01,2013-10-31 03:21:00,
2013-10-30 23:26:00,53.5,53.5,30.18,SSE,166,0.0,0.0,100,0.00,,OVC050,0.01,VWS V14.01,2013-10-31 03:26:00,
2013-10-30 23:31:00,53.5,53.5,30.18,SSE,166,0.0,0.0,100,0.00,,OVC050,0.01,VWS V14.01,2013-10-31 03:31:00,
2013-10-30 23:36:00,53.7,53.7,30.18,SSE,166,0.0,0.0,100,0.00,,OVC050,0.01,VWS V14.01,2013-10-31 03:36:00,
2013-10-30 23:41:00,53.8,53.8,30.18,SSE,166,0.0,0.0,100,0.00,,OVC065,0.01,VWS V14.01,2013-10-31 03:41:00,
2013-10-30 23:46:00,53.8,53.8,30.17,SSE,166,0.0,0.0,100,0.00,,OVC065,0.01,VWS V14.01,2013-10-31 03:46:00,
2013-10-30 23:51:00,53.8,53.8,30.17,SSE,166,0.0,0.0,100,0.00,,OVC065,0.01,VWS V14.01,2013-10-31 03:51:00,
2013-10-30 23:56:00,53.9,53.9,30.17,SSE,166,0.0,0.0,100,0.00,,OVC065,0.01,VWS V14.01,2013-10-31 03:56:00,